Portada
METAR-TAF:

METAR-TAF

Aeroports :

Kugaaruk, Nunavut, Canadà

latitud: 68-32N, longitud: 089-49W, altitud: 15 m

Observació

L'informe es va fer fa 1 hora i 48 minuts, a les 23:00 UTC
Vent 8 kt del Oest
Temperatura 6°C
Humitat 65%
Pressió 1009 hPa
Visibilitat: 24.1 km
Escasses núvols a una alçada de 12000 ft

METAR: CYBB 162300Z 27008KT 15SM FEW120 06/M00 A2981 RMK AC1 LAST STFD OBS/NXT/171200Z SLP098

Hora: 18:48 (00:48 UTC)

Pronòstic

L'informe es va fer fa 5 hores i 42 minuts, a les 19:06 UTC
Pronòstic vàlid del 16 a les 19 UTC al 16 a les 24 UTC
Vent 12 kt del Oest
Visibilitat: 10 km
Escasses núvols a una alçada de 4000 ft
Núvols disperses a una alçada de 20000 ft

TAF: CYBB 161906Z 1619/1624 28012KT P6SM FEW040 SCT200 RMK NXT FCST BY 171400Z

Observacions i pronòstics meteorològics de més de 4000 aeroports (METAR i TAF).

Les estacions disponibles són els punts grocs i vermells al mapa.

Posi el ratolí al punt desitjat per veure el nom de l'estació.

Feu clic per veure les observacions i els pronòstics meteorològics.

Per canviar el mapa: feu clic els botons verds amb una creu de color negre per apropar; al botó verd amb un guió per allunyar la imatge; o en les fletxes verdes per a mapes adjacents.


METAR-TAF: